Durant, Iowa
Current Conditions -  °F | °C
As of 4:52 PM on Monday 22 Dec 2014 (Local Time) from KDVN Reporting Station
Haze Haze  
Wind Chill: -1°   Ceiling: 200
Heat Index:   Visibility: 1.5mi
Dew Point:   Wind: 9mph
Humidity: 96%   Direction: 110°ESE
Pressure: 29.57"   Gusts: NA
Location:  41.6°N, 90.91°W
Report Text: KDVN 222252Z AUTO 11008KT 1 1/2SM BR OVC002 03/02 A2957 RMK AO2 SLP018 T00280022
Loading
Personal Weather Stations






























Interactive Weather Map New forecast layout! Learn more

10-Day Weather Forecast

Advertisements
Track Severe Weather on mobile